sensor_id;sensor_type;location;lat;lon;timestamp;P1;durP1;ratioP1;P2;durP2;ratioP2
57345;SDS011;43181;50.974;18.244;2023-02-28T00:00:25;6.40;;;2.10;;
57345;SDS011;43181;50.974;18.244;2023-02-28T00:02:51;0.50;;;0.50;;
57345;SDS011;43181;50.974;18.244;2023-02-28T00:05:19;4.90;;;1.70;;
57345;SDS011;43181;50.974;18.244;2023-02-28T00:07:46;0.70;;;0.70;;
57345;SDS011;43181;50.974;18.244;2023-02-28T00:10:13;0.80;;;0.80;;
57345;SDS011;43181;50.974;18.244;2023-02-28T00:12:55;1.00;;;1.00;;
57345;SDS011;43181;50.974;18.244;2023-02-28T00:15:24;1.80;;;1.30;;
57345;SDS011;43181;50.974;18.244;2023-02-28T00:17:50;1.00;;;1.00;;
57345;SDS011;43181;50.974;18.244;2023-02-28T00:20:16;3.30;;;2.90;;
57345;SDS011;43181;50.974;18.244;2023-02-28T00:22:43;1.60;;;1.50;;
57345;SDS011;43181;50.974;18.244;2023-02-28T00:25:11;5.90;;;3.60;;
57345;SDS011;43181;50.974;18.244;2023-02-28T00:27:37;2.20;;;2.00;;
57345;SDS011;43181;50.974;18.244;2023-02-28T00:30:04;1.70;;;1.60;;
57345;SDS011;43181;50.974;18.244;2023-02-28T00:32:32;0.90;;;0.80;;
57345;SDS011;43181;50.974;18.244;2023-02-28T00:34:59;2.70;;;2.50;;
57345;SDS011;43181;50.974;18.244;2023-02-28T00:37:25;8.20;;;1.70;;
57345;SDS011;43181;50.974;18.244;2023-02-28T00:39:50;1.50;;;1.40;;
57345;SDS011;43181;50.974;18.244;2023-02-28T00:42:16;1.00;;;1.00;;
57345;SDS011;43181;50.974;18.244;2023-02-28T00:44:42;2.30;;;1.20;;
57345;SDS011;43181;50.974;18.244;2023-02-28T00:47:08;0.70;;;0.70;;
57345;SDS011;43181;50.974;18.244;2023-02-28T00:49:33;1.80;;;1.70;;
57345;SDS011;43181;50.974;18.244;2023-02-28T00:51:59;0.90;;;0.90;;
57345;SDS011;43181;50.974;18.244;2023-02-28T00:54:25;4.00;;;2.40;;
57345;SDS011;43181;50.974;18.244;2023-02-28T00:56:51;4.30;;;1.50;;
57345;SDS011;43181;50.974;18.244;2023-02-28T00:59:17;2.70;;;1.40;;
57345;SDS011;43181;50.974;18.244;2023-02-28T01:01:43;0.90;;;0.90;;
57345;SDS011;43181;50.974;18.244;2023-02-28T01:04:10;0.50;;;0.50;;
57345;SDS011;43181;50.974;18.244;2023-02-28T01:06:36;1.10;;;1.00;;
57345;SDS011;43181;50.974;18.244;2023-02-28T01:09:03;0.90;;;0.90;;
57345;SDS011;43181;50.974;18.244;2023-02-28T01:11:29;1.00;;;0.90;;
57345;SDS011;43181;50.974;18.244;2023-02-28T01:13:55;1.20;;;1.10;;
57345;SDS011;43181;50.974;18.244;2023-02-28T01:16:21;1.20;;;1.20;;
57345;SDS011;43181;50.974;18.244;2023-02-28T01:18:47;0.70;;;0.70;;
57345;SDS011;43181;50.974;18.244;2023-02-28T01:21:14;2.90;;;0.70;;
57345;SDS011;43181;50.974;18.244;2023-02-28T01:23:40;1.10;;;1.00;;
57345;SDS011;43181;50.974;18.244;2023-02-28T01:26:28;1.10;;;1.10;;
57345;SDS011;43181;50.974;18.244;2023-02-28T01:28:53;2.20;;;2.10;;
57345;SDS011;43181;50.974;18.244;2023-02-28T01:31:19;2.80;;;2.10;;
57345;SDS011;43181;50.974;18.244;2023-02-28T01:33:46;4.50;;;1.40;;
57345;SDS011;43181;50.974;18.244;2023-02-28T01:36:22;1.30;;;0.80;;
57345;SDS011;43181;50.974;18.244;2023-02-28T01:38:49;0.60;;;0.60;;
57345;SDS011;43181;50.974;18.244;2023-02-28T01:41:17;1.30;;;1.30;;
57345;SDS011;43181;50.974;18.244;2023-02-28T01:46:13;0.50;;;0.50;;
57345;SDS011;43181;50.974;18.244;2023-02-28T01:48:48;1.60;;;1.20;;
57345;SDS011;43181;50.974;18.244;2023-02-28T01:54:16;5.20;;;2.80;;
57345;SDS011;43181;50.974;18.244;2023-02-28T01:56:49;0.70;;;0.70;;
57345;SDS011;43181;50.974;18.244;2023-02-28T01:59:41;2.90;;;1.90;;
57345;SDS011;43181;50.974;18.244;2023-02-28T02:02:14;2.00;;;1.90;;
57345;SDS011;43181;50.974;18.244;2023-02-28T02:04:45;1.70;;;1.60;;
57345;SDS011;43181;50.974;18.244;2023-02-28T02:07:17;1.60;;;1.50;;
57345;SDS011;43181;50.974;18.244;2023-02-28T02:09:42;1.80;;;1.40;;
57345;SDS011;43181;50.974;18.244;2023-02-28T02:17:39;2.90;;;2.80;;
57345;SDS011;43181;50.974;18.244;2023-02-28T02:36:05;0.90;;;0.70;;
57345;SDS011;43181;50.974;18.244;2023-02-28T02:38:34;0.80;;;0.80;;
57345;SDS011;43181;50.974;18.244;2023-02-28T02:41:20;0.60;;;0.60;;
57345;SDS011;43181;50.974;18.244;2023-02-28T02:43:55;0.70;;;0.70;;
57345;SDS011;43181;50.974;18.244;2023-02-28T02:46:26;2.30;;;1.00;;
57345;SDS011;43181;50.974;18.244;2023-02-28T02:48:54;2.00;;;1.40;;
57345;SDS011;43181;50.974;18.244;2023-02-28T02:51:21;0.90;;;0.90;;
57345;SDS011;43181;50.974;18.244;2023-02-28T02:53:52;0.70;;;0.70;;
57345;SDS011;43181;50.974;18.244;2023-02-28T02:56:22;0.60;;;0.60;;
57345;SDS011;43181;50.974;18.244;2023-02-28T02:58:50;1.60;;;1.50;;
57345;SDS011;43181;50.974;18.244;2023-02-28T03:01:21;3.10;;;2.80;;
57345;SDS011;43181;50.974;18.244;2023-02-28T03:04:03;1.50;;;1.40;;
57345;SDS011;43181;50.974;18.244;2023-02-28T03:06:31;1.10;;;1.10;;
57345;SDS011;43181;50.974;18.244;2023-02-28T03:08:57;2.60;;;1.40;;
57345;SDS011;43181;50.974;18.244;2023-02-28T03:11:22;1.20;;;1.20;;
57345;SDS011;43181;50.974;18.244;2023-02-28T03:13:53;0.60;;;0.40;;
57345;SDS011;43181;50.974;18.244;2023-02-28T03:16:32;1.30;;;1.30;;
57345;SDS011;43181;50.974;18.244;2023-02-28T03:19:03;6.30;;;2.20;;
57345;SDS011;43181;50.974;18.244;2023-02-28T03:27:55;2.20;;;1.30;;
57345;SDS011;43181;50.974;18.244;2023-02-28T03:35:42;1.30;;;1.30;;
57345;SDS011;43181;50.974;18.244;2023-02-28T03:38:13;1.50;;;1.50;;
57345;SDS011;43181;50.974;18.244;2023-02-28T03:44:03;3.80;;;2.80;;
57345;SDS011;43181;50.974;18.244;2023-02-28T03:46:36;2.90;;;2.70;;
57345;SDS011;43181;50.974;18.244;2023-02-28T03:49:06;1.70;;;1.70;;
57345;SDS011;43181;50.974;18.244;2023-02-28T03:51:36;2.50;;;1.90;;
57345;SDS011;43181;50.974;18.244;2023-02-28T03:54:07;1.00;;;1.00;;
57345;SDS011;43181;50.974;18.244;2023-02-28T03:56:38;1.00;;;1.00;;
57345;SDS011;43181;50.974;18.244;2023-02-28T03:59:07;0.90;;;0.90;;
57345;SDS011;43181;50.974;18.244;2023-02-28T04:01:39;7.80;;;5.00;;
57345;SDS011;43181;50.974;18.244;2023-02-28T04:04:07;4.30;;;3.90;;
57345;SDS011;43181;50.974;18.244;2023-02-28T04:06:34;4.80;;;2.70;;
57345;SDS011;43181;50.974;18.244;2023-02-28T04:09:00;2.00;;;1.90;;
57345;SDS011;43181;50.974;18.244;2023-02-28T04:11:32;2.70;;;1.80;;
57345;SDS011;43181;50.974;18.244;2023-02-28T04:14:00;1.70;;;1.60;;
57345;SDS011;43181;50.974;18.244;2023-02-28T04:16:28;2.20;;;2.10;;
57345;SDS011;43181;50.974;18.244;2023-02-28T04:18:54;2.10;;;2.00;;
57345;SDS011;43181;50.974;18.244;2023-02-28T04:21:31;0.60;;;0.60;;
57345;SDS011;43181;50.974;18.244;2023-02-28T04:23:58;1.80;;;1.70;;
57345;SDS011;43181;50.974;18.244;2023-02-28T04:26:32;1.90;;;1.80;;
57345;SDS011;43181;50.974;18.244;2023-02-28T04:28:59;1.40;;;1.30;;
57345;SDS011;43181;50.974;18.244;2023-02-28T04:31:25;1.20;;;1.20;;
57345;SDS011;43181;50.974;18.244;2023-02-28T04:33:52;2.20;;;2.10;;
57345;SDS011;43181;50.974;18.244;2023-02-28T04:36:18;3.10;;;2.90;;
57345;SDS011;43181;50.974;18.244;2023-02-28T04:38:44;2.40;;;2.30;;
57345;SDS011;43181;50.974;18.244;2023-02-28T04:41:10;0.70;;;0.70;;
57345;SDS011;43181;50.974;18.244;2023-02-28T04:43:37;4.90;;;1.90;;
57345;SDS011;43181;50.974;18.244;2023-02-28T04:46:03;1.20;;;1.20;;
57345;SDS011;43181;50.974;18.244;2023-02-28T04:48:31;2.40;;;1.70;;
57345;SDS011;43181;50.974;18.244;2023-02-28T04:51:01;0.90;;;0.90;;
57345;SDS011;43181;50.974;18.244;2023-02-28T04:53:28;2.20;;;2.10;;
57345;SDS011;43181;50.974;18.244;2023-02-28T04:55:54;0.90;;;0.90;;
57345;SDS011;43181;50.974;18.244;2023-02-28T04:58:21;3.40;;;3.20;;
57345;SDS011;43181;50.974;18.244;2023-02-28T05:00:48;3.00;;;1.40;;
57345;SDS011;43181;50.974;18.244;2023-02-28T05:03:14;7.40;;;3.90;;
57345;SDS011;43181;50.974;18.244;2023-02-28T05:05:40;2.10;;;2.00;;
57345;SDS011;43181;50.974;18.244;2023-02-28T05:08:06;1.10;;;1.10;;
57345;SDS011;43181;50.974;18.244;2023-02-28T05:10:32;1.60;;;1.60;;
57345;SDS011;43181;50.974;18.244;2023-02-28T05:12:57;1.90;;;1.60;;
57345;SDS011;43181;50.974;18.244;2023-02-28T05:15:23;5.10;;;1.80;;
57345;SDS011;43181;50.974;18.244;2023-02-28T05:17:49;1.40;;;1.40;;
57345;SDS011;43181;50.974;18.244;2023-02-28T05:20:15;4.90;;;2.70;;
57345;SDS011;43181;50.974;18.244;2023-02-28T05:22:41;2.60;;;2.40;;
57345;SDS011;43181;50.974;18.244;2023-02-28T05:25:09;2.80;;;2.60;;
57345;SDS011;43181;50.974;18.244;2023-02-28T05:27:37;4.40;;;2.80;;
57345;SDS011;43181;50.974;18.244;2023-02-28T05:30:02;2.70;;;1.80;;
57345;SDS011;43181;50.974;18.244;2023-02-28T05:32:29;2.70;;;2.50;;
57345;SDS011;43181;50.974;18.244;2023-02-28T05:34:55;2.30;;;2.10;;
57345;SDS011;43181;50.974;18.244;2023-02-28T05:37:21;5.90;;;2.80;;
57345;SDS011;43181;50.974;18.244;2023-02-28T05:39:46;1.00;;;1.00;;
57345;SDS011;43181;50.974;18.244;2023-02-28T05:42:12;0.80;;;0.80;;
57345;SDS011;43181;50.974;18.244;2023-02-28T05:44:38;1.00;;;1.00;;
57345;SDS011;43181;50.974;18.244;2023-02-28T05:47:03;1.60;;;0.70;;
57345;SDS011;43181;50.974;18.244;2023-02-28T05:49:29;1.80;;;1.40;;
57345;SDS011;43181;50.974;18.244;2023-02-28T05:51:55;2.40;;;1.60;;
57345;SDS011;43181;50.974;18.244;2023-02-28T05:54:20;0.80;;;0.80;;
57345;SDS011;43181;50.974;18.244;2023-02-28T05:56:46;2.70;;;2.60;;
57345;SDS011;43181;50.974;18.244;2023-02-28T05:59:12;1.10;;;1.10;;
57345;SDS011;43181;50.974;18.244;2023-02-28T06:04:06;1.20;;;1.00;;
57345;SDS011;43181;50.974;18.244;2023-02-28T06:06:33;1.60;;;1.50;;
57345;SDS011;43181;50.974;18.244;2023-02-28T06:09:06;0.70;;;0.70;;
57345;SDS011;43181;50.974;18.244;2023-02-28T06:11:32;1.70;;;1.40;;
57345;SDS011;43181;50.974;18.244;2023-02-28T06:13:58;1.20;;;1.10;;
57345;SDS011;43181;50.974;18.244;2023-02-28T06:16:26;1.10;;;1.10;;
57345;SDS011;43181;50.974;18.244;2023-02-28T06:18:52;1.70;;;1.60;;
57345;SDS011;43181;50.974;18.244;2023-02-28T06:21:21;5.50;;;4.70;;
57345;SDS011;43181;50.974;18.244;2023-02-28T06:23:47;15.20;;;6.60;;
57345;SDS011;43181;50.974;18.244;2023-02-28T06:26:14;5.40;;;4.00;;
57345;SDS011;43181;50.974;18.244;2023-02-28T06:28:40;7.80;;;4.60;;
57345;SDS011;43181;50.974;18.244;2023-02-28T06:31:08;3.60;;;3.20;;
57345;SDS011;43181;50.974;18.244;2023-02-28T06:33:35;0.90;;;0.90;;
57345;SDS011;43181;50.974;18.244;2023-02-28T06:36:02;2.10;;;2.00;;
57345;SDS011;43181;50.974;18.244;2023-02-28T06:38:28;7.50;;;2.40;;
57345;SDS011;43181;50.974;18.244;2023-02-28T06:40:54;1.70;;;1.60;;
57345;SDS011;43181;50.974;18.244;2023-02-28T06:43:21;6.40;;;3.10;;
57345;SDS011;43181;50.974;18.244;2023-02-28T06:45:47;7.70;;;3.60;;
57345;SDS011;43181;50.974;18.244;2023-02-28T06:48:13;6.90;;;4.30;;
57345;SDS011;43181;50.974;18.244;2023-02-28T06:50:40;5.90;;;2.90;;
57345;SDS011;43181;50.974;18.244;2023-02-28T06:53:05;4.00;;;3.10;;
57345;SDS011;43181;50.974;18.244;2023-02-28T06:55:31;2.20;;;1.80;;
57345;SDS011;43181;50.974;18.244;2023-02-28T06:57:57;4.90;;;2.80;;
57345;SDS011;43181;50.974;18.244;2023-02-28T07:00:23;4.60;;;3.50;;
57345;SDS011;43181;50.974;18.244;2023-02-28T07:02:50;5.20;;;3.30;;
57345;SDS011;43181;50.974;18.244;2023-02-28T07:05:16;4.80;;;2.40;;
57345;SDS011;43181;50.974;18.244;2023-02-28T07:07:41;8.30;;;4.10;;
57345;SDS011;43181;50.974;18.244;2023-02-28T07:10:12;15.30;;;6.20;;
57345;SDS011;43181;50.974;18.244;2023-02-28T07:12:42;15.20;;;7.70;;
57345;SDS011;43181;50.974;18.244;2023-02-28T07:15:08;13.50;;;6.10;;
57345;SDS011;43181;50.974;18.244;2023-02-28T07:17:34;4.50;;;3.20;;
57345;SDS011;43181;50.974;18.244;2023-02-28T07:20:00;8.60;;;3.30;;
57345;SDS011;43181;50.974;18.244;2023-02-28T07:22:27;5.80;;;3.70;;
57345;SDS011;43181;50.974;18.244;2023-02-28T07:24:54;7.30;;;2.80;;
57345;SDS011;43181;50.974;18.244;2023-02-28T07:27:22;3.60;;;2.10;;
57345;SDS011;43181;50.974;18.244;2023-02-28T07:29:51;5.10;;;2.80;;
57345;SDS011;43181;50.974;18.244;2023-02-28T07:32:17;6.90;;;2.50;;
57345;SDS011;43181;50.974;18.244;2023-02-28T07:34:44;2.70;;;1.80;;
57345;SDS011;43181;50.974;18.244;2023-02-28T07:37:10;1.90;;;1.70;;
57345;SDS011;43181;50.974;18.244;2023-02-28T07:39:36;5.40;;;2.60;;
57345;SDS011;43181;50.974;18.244;2023-02-28T07:42:05;2.30;;;1.70;;
57345;SDS011;43181;50.974;18.244;2023-02-28T07:44:31;3.70;;;1.50;;
57345;SDS011;43181;50.974;18.244;2023-02-28T07:46:57;8.20;;;3.10;;
57345;SDS011;43181;50.974;18.244;2023-02-28T07:49:23;3.50;;;2.00;;
57345;SDS011;43181;50.974;18.244;2023-02-28T07:51:49;3.10;;;1.60;;
57345;SDS011;43181;50.974;18.244;2023-02-28T07:54:14;3.10;;;1.30;;
57345;SDS011;43181;50.974;18.244;2023-02-28T07:56:40;2.80;;;1.30;;
57345;SDS011;43181;50.974;18.244;2023-02-28T07:59:06;0.80;;;0.50;;
57345;SDS011;43181;50.974;18.244;2023-02-28T08:01:31;2.80;;;1.20;;
57345;SDS011;43181;50.974;18.244;2023-02-28T08:03:57;5.10;;;1.60;;
57345;SDS011;43181;50.974;18.244;2023-02-28T08:06:23;2.50;;;1.50;;
57345;SDS011;43181;50.974;18.244;2023-02-28T08:08:50;2.00;;;1.20;;
57345;SDS011;43181;50.974;18.244;2023-02-28T08:11:16;2.00;;;1.20;;
57345;SDS011;43181;50.974;18.244;2023-02-28T08:13:42;1.80;;;1.50;;
57345;SDS011;43181;50.974;18.244;2023-02-28T08:16:09;4.70;;;1.90;;
57345;SDS011;43181;50.974;18.244;2023-02-28T08:18:36;1.60;;;0.90;;
57345;SDS011;43181;50.974;18.244;2023-02-28T08:21:09;2.00;;;1.20;;
57345;SDS011;43181;50.974;18.244;2023-02-28T08:23:35;2.40;;;1.40;;
57345;SDS011;43181;50.974;18.244;2023-02-28T08:26:02;1.80;;;1.20;;
57345;SDS011;43181;50.974;18.244;2023-02-28T08:28:28;1.50;;;1.00;;
57345;SDS011;43181;50.974;18.244;2023-02-28T08:30:54;2.70;;;1.80;;
57345;SDS011;43181;50.974;18.244;2023-02-28T08:33:20;1.80;;;1.10;;
57345;SDS011;43181;50.974;18.244;2023-02-28T08:35:46;3.30;;;1.50;;
57345;SDS011;43181;50.974;18.244;2023-02-28T08:38:12;4.10;;;1.80;;
57345;SDS011;43181;50.974;18.244;2023-02-28T08:40:38;5.90;;;1.50;;
57345;SDS011;43181;50.974;18.244;2023-02-28T08:43:03;2.60;;;1.10;;
57345;SDS011;43181;50.974;18.244;2023-02-28T08:45:29;6.00;;;1.70;;
57345;SDS011;43181;50.974;18.244;2023-02-28T08:47:55;6.80;;;4.00;;
57345;SDS011;43181;50.974;18.244;2023-02-28T08:50:21;19.20;;;12.50;;
57345;SDS011;43181;50.974;18.244;2023-02-28T08:52:47;29.70;;;12.50;;
57345;SDS011;43181;50.974;18.244;2023-02-28T08:55:13;7.00;;;4.10;;
57345;SDS011;43181;50.974;18.244;2023-02-28T08:57:39;2.80;;;1.20;;
57345;SDS011;43181;50.974;18.244;2023-02-28T09:00:05;6.00;;;4.20;;
57345;SDS011;43181;50.974;18.244;2023-02-28T09:02:32;3.00;;;2.30;;
57345;SDS011;43181;50.974;18.244;2023-02-28T09:04:58;4.60;;;2.70;;
57345;SDS011;43181;50.974;18.244;2023-02-28T09:07:24;4.80;;;3.40;;
57345;SDS011;43181;50.974;18.244;2023-02-28T09:09:50;10.40;;;8.00;;
57345;SDS011;43181;50.974;18.244;2023-02-28T09:12:22;18.80;;;12.20;;
57345;SDS011;43181;50.974;18.244;2023-02-28T09:14:49;9.10;;;6.20;;
57345;SDS011;43181;50.974;18.244;2023-02-28T09:17:15;6.50;;;4.40;;
57345;SDS011;43181;50.974;18.244;2023-02-28T09:19:41;5.40;;;3.00;;
57345;SDS011;43181;50.974;18.244;2023-02-28T09:22:08;3.50;;;2.20;;
57345;SDS011;43181;50.974;18.244;2023-02-28T09:24:35;3.80;;;2.00;;
57345;SDS011;43181;50.974;18.244;2023-02-28T09:27:02;2.80;;;2.20;;
57345;SDS011;43181;50.974;18.244;2023-02-28T09:29:28;4.00;;;2.30;;
57345;SDS011;43181;50.974;18.244;2023-02-28T09:31:53;4.20;;;1.70;;
57345;SDS011;43181;50.974;18.244;2023-02-28T09:34:19;2.10;;;1.10;;
57345;SDS011;43181;50.974;18.244;2023-02-28T09:36:45;2.40;;;1.60;;
57345;SDS011;43181;50.974;18.244;2023-02-28T09:39:11;3.50;;;1.70;;
57345;SDS011;43181;50.974;18.244;2023-02-28T09:41:40;3.40;;;1.60;;
57345;SDS011;43181;50.974;18.244;2023-02-28T09:44:16;2.10;;;1.60;;
57345;SDS011;43181;50.974;18.244;2023-02-28T09:46:48;4.40;;;2.80;;
57345;SDS011;43181;50.974;18.244;2023-02-28T09:49:18;4.10;;;2.40;;
57345;SDS011;43181;50.974;18.244;2023-02-28T09:52:00;5.70;;;2.90;;
57345;SDS011;43181;50.974;18.244;2023-02-28T09:54:34;4.50;;;2.50;;
57345;SDS011;43181;50.974;18.244;2023-02-28T09:59:41;4.20;;;2.10;;
57345;SDS011;43181;50.974;18.244;2023-02-28T10:05:00;2.80;;;1.60;;
57345;SDS011;43181;50.974;18.244;2023-02-28T10:07:36;4.40;;;1.70;;
57345;SDS011;43181;50.974;18.244;2023-02-28T10:13:12;3.20;;;1.50;;
57345;SDS011;43181;50.974;18.244;2023-02-28T10:15:42;3.80;;;1.40;;
57345;SDS011;43181;50.974;18.244;2023-02-28T10:18:12;3.10;;;1.30;;
57345;SDS011;43181;50.974;18.244;2023-02-28T10:20:40;2.50;;;1.70;;
57345;SDS011;43181;50.974;18.244;2023-02-28T10:23:21;2.40;;;1.40;;
57345;SDS011;43181;50.974;18.244;2023-02-28T10:26:00;2.20;;;1.50;;
57345;SDS011;43181;50.974;18.244;2023-02-28T10:28:33;3.20;;;1.80;;
57345;SDS011;43181;50.974;18.244;2023-02-28T10:30:59;2.50;;;1.20;;
57345;SDS011;43181;50.974;18.244;2023-02-28T10:33:29;2.40;;;1.50;;
57345;SDS011;43181;50.974;18.244;2023-02-28T10:35:57;2.00;;;1.50;;
57345;SDS011;43181;50.974;18.244;2023-02-28T10:38:28;2.00;;;1.20;;
57345;SDS011;43181;50.974;18.244;2023-02-28T10:41:08;4.50;;;2.10;;
57345;SDS011;43181;50.974;18.244;2023-02-28T10:43:36;3.70;;;2.00;;
57345;SDS011;43181;50.974;18.244;2023-02-28T10:48:46;4.10;;;1.60;;
57345;SDS011;43181;50.974;18.244;2023-02-28T10:51:16;2.20;;;1.70;;
57345;SDS011;43181;50.974;18.244;2023-02-28T10:53:54;3.30;;;2.60;;
57345;SDS011;43181;50.974;18.244;2023-02-28T10:56:24;3.70;;;2.10;;
57345;SDS011;43181;50.974;18.244;2023-02-28T11:03:51;4.70;;;2.00;;
57345;SDS011;43181;50.974;18.244;2023-02-28T11:09:27;2.80;;;1.90;;
57345;SDS011;43181;50.974;18.244;2023-02-28T11:11:54;4.30;;;1.40;;
57345;SDS011;43181;50.974;18.244;2023-02-28T11:14:21;4.30;;;2.00;;
57345;SDS011;43181;50.974;18.244;2023-02-28T11:16:50;3.60;;;2.00;;
57345;SDS011;43181;50.974;18.244;2023-02-28T11:19:20;3.10;;;1.50;;
57345;SDS011;43181;50.974;18.244;2023-02-28T11:21:56;3.30;;;1.50;;
57345;SDS011;43181;50.974;18.244;2023-02-28T11:24:26;4.90;;;2.60;;
57345;SDS011;43181;50.974;18.244;2023-02-28T11:26:57;3.30;;;1.90;;
57345;SDS011;43181;50.974;18.244;2023-02-28T11:29:32;3.20;;;2.00;;
57345;SDS011;43181;50.974;18.244;2023-02-28T11:37:34;3.40;;;1.70;;
57345;SDS011;43181;50.974;18.244;2023-02-28T11:40:00;2.90;;;2.10;;
57345;SDS011;43181;50.974;18.244;2023-02-28T12:01:32;5.50;;;2.70;;
57345;SDS011;43181;50.974;18.244;2023-02-28T12:07:18;5.50;;;2.30;;
57345;SDS011;43181;50.974;18.244;2023-02-28T12:10:28;3.30;;;1.30;;
57345;SDS011;43181;50.974;18.244;2023-02-28T12:16:16;3.20;;;1.80;;
57345;SDS011;43181;50.974;18.244;2023-02-28T12:26:37;4.30;;;2.30;;
57345;SDS011;43181;50.974;18.244;2023-02-28T12:31:46;4.60;;;1.90;;
57345;SDS011;43181;50.974;18.244;2023-02-28T12:34:36;3.70;;;2.60;;
57345;SDS011;43181;50.974;18.244;2023-02-28T12:37:06;4.60;;;2.10;;
57345;SDS011;43181;50.974;18.244;2023-02-28T12:39:39;4.60;;;3.00;;
57345;SDS011;43181;50.974;18.244;2023-02-28T12:42:13;4.40;;;1.70;;
57345;SDS011;43181;50.974;18.244;2023-02-28T12:44:49;5.80;;;2.50;;
57345;SDS011;43181;50.974;18.244;2023-02-28T12:47:18;4.40;;;2.90;;
57345;SDS011;43181;50.974;18.244;2023-02-28T12:52:20;4.20;;;3.00;;
57345;SDS011;43181;50.974;18.244;2023-02-28T12:54:53;4.50;;;2.40;;
57345;SDS011;43181;50.974;18.244;2023-02-28T12:57:38;6.60;;;2.60;;
57345;SDS011;43181;50.974;18.244;2023-02-28T13:00:17;5.90;;;3.10;;
57345;SDS011;43181;50.974;18.244;2023-02-28T13:11:07;3.60;;;2.00;;
57345;SDS011;43181;50.974;18.244;2023-02-28T13:13:32;4.10;;;2.50;;
57345;SDS011;43181;50.974;18.244;2023-02-28T13:18:36;6.30;;;2.70;;
57345;SDS011;43181;50.974;18.244;2023-02-28T13:21:08;3.20;;;2.00;;
57345;SDS011;43181;50.974;18.244;2023-02-28T13:26:06;4.50;;;2.60;;
57345;SDS011;43181;50.974;18.244;2023-02-28T13:31:16;7.00;;;3.40;;
57345;SDS011;43181;50.974;18.244;2023-02-28T13:44:04;4.50;;;2.70;;
57345;SDS011;43181;50.974;18.244;2023-02-28T13:46:35;6.10;;;1.90;;
57345;SDS011;43181;50.974;18.244;2023-02-28T13:51:46;3.20;;;1.80;;
57345;SDS011;43181;50.974;18.244;2023-02-28T13:56:51;3.20;;;2.20;;
57345;SDS011;43181;50.974;18.244;2023-02-28T13:59:28;6.30;;;2.70;;
57345;SDS011;43181;50.974;18.244;2023-02-28T14:07:46;4.70;;;2.30;;
57345;SDS011;43181;50.974;18.244;2023-02-28T14:10:34;7.90;;;2.60;;
57345;SDS011;43181;50.974;18.244;2023-02-28T14:21:50;4.40;;;2.80;;
57345;SDS011;43181;50.974;18.244;2023-02-28T14:27:32;4.80;;;2.30;;
57345;SDS011;43181;50.974;18.244;2023-02-28T14:38:24;3.40;;;2.40;;
57345;SDS011;43181;50.974;18.244;2023-02-28T14:40:54;4.20;;;2.60;;
57345;SDS011;43181;50.974;18.244;2023-02-28T14:43:22;5.90;;;3.60;;
57345;SDS011;43181;50.974;18.244;2023-02-28T14:45:50;4.20;;;2.40;;
57345;SDS011;43181;50.974;18.244;2023-02-28T14:48:19;6.40;;;2.50;;
57345;SDS011;43181;50.974;18.244;2023-02-28T14:50:49;5.20;;;2.80;;
57345;SDS011;43181;50.974;18.244;2023-02-28T14:53:18;5.60;;;2.60;;
57345;SDS011;43181;50.974;18.244;2023-02-28T14:55:46;3.20;;;2.30;;
57345;SDS011;43181;50.974;18.244;2023-02-28T14:58:26;3.50;;;2.20;;
57345;SDS011;43181;50.974;18.244;2023-02-28T15:00:59;4.60;;;1.90;;
57345;SDS011;43181;50.974;18.244;2023-02-28T15:03:30;2.60;;;2.10;;
57345;SDS011;43181;50.974;18.244;2023-02-28T15:06:05;2.60;;;1.90;;
57345;SDS011;43181;50.974;18.244;2023-02-28T15:08:38;3.90;;;1.60;;
57345;SDS011;43181;50.974;18.244;2023-02-28T15:13:44;5.30;;;3.50;;
57345;SDS011;43181;50.974;18.244;2023-02-28T15:16:12;3.20;;;2.60;;
57345;SDS011;43181;50.974;18.244;2023-02-28T15:21:42;11.50;;;4.80;;
57345;SDS011;43181;50.974;18.244;2023-02-28T15:27:20;7.30;;;4.10;;
57345;SDS011;43181;50.974;18.244;2023-02-28T15:29:48;8.00;;;3.30;;
57345;SDS011;43181;50.974;18.244;2023-02-28T15:32:26;7.40;;;4.20;;
57345;SDS011;43181;50.974;18.244;2023-02-28T15:34:57;5.60;;;2.80;;
57345;SDS011;43181;50.974;18.244;2023-02-28T15:39:56;6.00;;;4.50;;
57345;SDS011;43181;50.974;18.244;2023-02-28T15:42:30;3.00;;;2.50;;
57345;SDS011;43181;50.974;18.244;2023-02-28T15:44:57;3.50;;;2.60;;
57345;SDS011;43181;50.974;18.244;2023-02-28T15:47:24;4.60;;;4.10;;
57345;SDS011;43181;50.974;18.244;2023-02-28T15:55:45;4.50;;;3.50;;
57345;SDS011;43181;50.974;18.244;2023-02-28T15:57:54;4.70;;;3.00;;
57345;SDS011;43181;50.974;18.244;2023-02-28T16:00:24;3.20;;;2.70;;
57345;SDS011;43181;50.974;18.244;2023-02-28T16:02:51;12.40;;;3.60;;
57345;SDS011;43181;50.974;18.244;2023-02-28T16:05:21;4.10;;;3.10;;
57345;SDS011;43181;50.974;18.244;2023-02-28T16:07:59;3.90;;;3.30;;
57345;SDS011;43181;50.974;18.244;2023-02-28T16:10:28;3.90;;;3.60;;
57345;SDS011;43181;50.974;18.244;2023-02-28T16:12:55;4.90;;;3.10;;
57345;SDS011;43181;50.974;18.244;2023-02-28T16:15:25;4.00;;;3.70;;
57345;SDS011;43181;50.974;18.244;2023-02-28T16:17:54;10.00;;;7.00;;
57345;SDS011;43181;50.974;18.244;2023-02-28T16:20:25;5.70;;;5.20;;
57345;SDS011;43181;50.974;18.244;2023-02-28T16:22:53;3.40;;;2.40;;
57345;SDS011;43181;50.974;18.244;2023-02-28T16:25:21;5.00;;;4.50;;
57345;SDS011;43181;50.974;18.244;2023-02-28T16:27:51;11.00;;;3.70;;
57345;SDS011;43181;50.974;18.244;2023-02-28T16:30:23;1.50;;;1.50;;
57345;SDS011;43181;50.974;18.244;2023-02-28T16:32:50;4.50;;;2.50;;
57345;SDS011;43181;50.974;18.244;2023-02-28T16:35:17;1.00;;;1.00;;
57345;SDS011;43181;50.974;18.244;2023-02-28T16:37:43;9.60;;;2.90;;
57345;SDS011;43181;50.974;18.244;2023-02-28T16:40:13;2.40;;;2.20;;
57345;SDS011;43181;50.974;18.244;2023-02-28T16:42:41;3.10;;;2.20;;
57345;SDS011;43181;50.974;18.244;2023-02-28T16:45:13;16.50;;;2.50;;
57345;SDS011;43181;50.974;18.244;2023-02-28T16:47:41;3.40;;;3.10;;
57345;SDS011;43181;50.974;18.244;2023-02-28T16:50:13;5.30;;;4.60;;
57345;SDS011;43181;50.974;18.244;2023-02-28T16:52:44;4.40;;;3.70;;
57345;SDS011;43181;50.974;18.244;2023-02-28T16:55:13;5.00;;;2.40;;
57345;SDS011;43181;50.974;18.244;2023-02-28T16:57:38;7.10;;;6.40;;
57345;SDS011;43181;50.974;18.244;2023-02-28T17:00:06;6.40;;;4.90;;
57345;SDS011;43181;50.974;18.244;2023-02-28T17:02:33;3.70;;;2.00;;
57345;SDS011;43181;50.974;18.244;2023-02-28T17:04:59;5.30;;;4.80;;
57345;SDS011;43181;50.974;18.244;2023-02-28T17:07:24;2.80;;;2.60;;
57345;SDS011;43181;50.974;18.244;2023-02-28T17:09:50;2.30;;;1.80;;
57345;SDS011;43181;50.974;18.244;2023-02-28T17:12:15;2.90;;;2.70;;
57345;SDS011;43181;50.974;18.244;2023-02-28T17:14:41;2.30;;;2.20;;
57345;SDS011;43181;50.974;18.244;2023-02-28T17:17:09;3.00;;;2.80;;
57345;SDS011;43181;50.974;18.244;2023-02-28T17:19:39;6.20;;;5.10;;
57345;SDS011;43181;50.974;18.244;2023-02-28T17:22:08;5.00;;;3.20;;
57345;SDS011;43181;50.974;18.244;2023-02-28T17:24:34;3.70;;;2.10;;
57345;SDS011;43181;50.974;18.244;2023-02-28T17:27:00;1.80;;;1.80;;
57345;SDS011;43181;50.974;18.244;2023-02-28T17:29:26;3.50;;;2.90;;
57345;SDS011;43181;50.974;18.244;2023-02-28T17:31:52;2.00;;;1.90;;
57345;SDS011;43181;50.974;18.244;2023-02-28T17:34:19;5.10;;;3.30;;
57345;SDS011;43181;50.974;18.244;2023-02-28T17:36:48;0.60;;;0.60;;
57345;SDS011;43181;50.974;18.244;2023-02-28T17:39:16;2.00;;;1.60;;
57345;SDS011;43181;50.974;18.244;2023-02-28T17:41:55;0.90;;;0.90;;
57345;SDS011;43181;50.974;18.244;2023-02-28T17:44:23;2.80;;;2.10;;